createdAt,value
2018-05-15T00:00:44.926Z,15.38
2018-05-15T00:02:56.069Z,15.36
2018-05-15T00:05:07.190Z,15.38
2018-05-15T00:07:18.377Z,15.42
2018-05-15T00:09:29.527Z,15.42
2018-05-15T00:11:40.639Z,15.43
2018-05-15T00:13:51.768Z,15.42
2018-05-15T00:16:02.974Z,15.39
2018-05-15T00:18:14.067Z,15.37
2018-05-15T00:20:25.241Z,15.37
2018-05-15T00:22:36.454Z,15.37
2018-05-15T00:24:47.690Z,15.33
2018-05-15T00:26:58.822Z,15.32
2018-05-15T00:29:09.996Z,15.34
2018-05-15T00:31:21.192Z,15.31
2018-05-15T00:33:32.269Z,15.31
2018-05-15T00:35:45.489Z,15.30
2018-05-15T00:37:56.613Z,15.30
2018-05-15T00:40:07.715Z,15.29
2018-05-15T00:42:18.846Z,15.28
2018-05-15T00:44:29.936Z,15.26
2018-05-15T00:46:41.171Z,15.26
2018-05-15T00:48:52.267Z,15.25
2018-05-15T00:51:03.476Z,15.27
2018-05-15T00:53:14.600Z,15.23
2018-05-15T00:55:37.752Z,15.21
2018-05-15T00:57:48.975Z,15.19
2018-05-15T01:00:00.068Z,15.16
2018-05-15T01:02:11.336Z,15.18
2018-05-15T01:04:22.446Z,15.14
2018-05-15T01:06:33.532Z,15.08
2018-05-15T01:08:44.635Z,15.08
2018-05-15T01:10:55.687Z,15.07
2018-05-15T01:13:06.823Z,15.04
2018-05-15T01:15:17.950Z,15.03
2018-05-15T01:17:29.080Z,15.03
2018-05-15T01:19:40.154Z,15.01
2018-05-15T01:21:51.194Z,15.01
2018-05-15T01:24:02.285Z,15.05
2018-05-15T01:26:13.358Z,15.03
2018-05-15T01:28:24.523Z,15.04
2018-05-15T01:30:35.732Z,15.04
2018-05-15T01:32:47.866Z,15.06
2018-05-15T01:34:59.571Z,15.07
2018-05-15T01:37:10.637Z,15.08
2018-05-15T01:39:21.705Z,15.05
2018-05-15T01:41:32.758Z,15.06
2018-05-15T01:43:43.819Z,15.02
2018-05-15T01:45:55.082Z,15.01
2018-05-15T01:48:06.138Z,15.01
2018-05-15T01:50:18.355Z,15.01
2018-05-15T01:52:29.465Z,15.00
2018-05-15T01:54:40.563Z,15.00
2018-05-15T01:56:51.746Z,15.00
2018-05-15T01:59:02.877Z,14.97
2018-05-15T02:01:13.982Z,14.97
2018-05-15T02:03:25.198Z,14.97
2018-05-15T02:05:37.704Z,14.96
2018-05-15T02:07:48.912Z,14.94
2018-05-15T02:10:00.019Z,14.94
2018-05-15T02:12:11.223Z,14.96
2018-05-15T02:14:22.363Z,14.96
2018-05-15T02:16:33.492Z,14.96
2018-05-15T02:18:44.624Z,14.99
2018-05-15T02:20:55.769Z,14.99
2018-05-15T02:23:06.939Z,14.99
2018-05-15T02:25:18.047Z,15.01
2018-05-15T02:27:29.139Z,15.02
2018-05-15T02:29:40.268Z,14.98
2018-05-15T02:31:51.418Z,14.99
2018-05-15T02:34:02.568Z,14.98
2018-05-15T02:36:13.715Z,14.96
2018-05-15T02:38:24.864Z,14.96
2018-05-15T02:40:36.047Z,14.97
2018-05-15T02:42:47.241Z,14.98
2018-05-15T02:44:58.420Z,14.99
2018-05-15T02:47:09.474Z,14.96
2018-05-15T02:49:20.551Z,14.94
2018-05-15T02:51:31.619Z,14.92
2018-05-15T02:53:42.782Z,14.89
2018-05-15T02:55:54.010Z,14.89
2018-05-15T02:58:05.165Z,14.88
2018-05-15T03:00:16.281Z,14.87
2018-05-15T03:02:27.475Z,14.84
2018-05-15T03:04:38.530Z,14.87
2018-05-15T03:06:49.628Z,14.88
2018-05-15T03:09:00.714Z,14.87
2018-05-15T03:11:11.779Z,14.85
2018-05-15T03:13:22.871Z,14.85
2018-05-15T03:15:33.955Z,14.85
2018-05-15T03:17:45.011Z,14.83
2018-05-15T03:19:56.093Z,14.82
2018-05-15T03:22:07.214Z,14.79
2018-05-15T03:24:18.298Z,14.79
2018-05-15T03:26:29.396Z,14.77
2018-05-15T03:28:40.466Z,14.75
2018-05-15T03:30:51.652Z,14.69
2018-05-15T03:33:02.766Z,14.68
2018-05-15T03:35:13.885Z,14.65
2018-05-15T03:37:24.925Z,14.68
2018-05-15T03:39:36.007Z,14.68
2018-05-15T03:41:47.071Z,14.65
2018-05-15T03:43:58.162Z,14.65
2018-05-15T03:46:09.267Z,14.63
2018-05-15T03:48:20.362Z,14.60
2018-05-15T03:50:31.443Z,14.53
2018-05-15T03:52:42.512Z,14.53
2018-05-15T03:54:53.610Z,14.49
2018-05-15T03:57:04.738Z,14.44
2018-05-15T03:59:15.831Z,14.47
2018-05-15T04:01:39.130Z,14.46
2018-05-15T04:04:02.504Z,14.42
2018-05-15T04:06:25.886Z,14.43
2018-05-15T04:08:37.004Z,14.42
2018-05-15T04:10:48.240Z,14.39
2018-05-15T04:13:00.111Z,14.44
2018-05-15T04:15:11.214Z,14.49
2018-05-15T04:17:22.282Z,14.51
2018-05-15T04:19:33.467Z,14.55
2018-05-15T04:21:44.538Z,14.54
2018-05-15T04:23:55.812Z,14.52
2018-05-15T04:26:06.927Z,14.54
2018-05-15T04:28:18.195Z,14.56
2018-05-15T04:30:29.242Z,14.53
2018-05-15T04:32:40.299Z,14.54
2018-05-15T04:34:51.386Z,14.54
2018-05-15T04:37:02.498Z,14.56
2018-05-15T04:39:13.702Z,14.54
2018-05-15T04:41:24.809Z,14.58
2018-05-15T04:43:36.025Z,14.62
2018-05-15T04:45:47.070Z,14.61
2018-05-15T04:47:58.206Z,14.60
2018-05-15T04:50:09.294Z,14.63
2018-05-15T04:52:20.400Z,14.63
2018-05-15T04:54:31.470Z,14.61
2018-05-15T04:56:42.573Z,14.65
2018-05-15T04:58:53.743Z,14.70
2018-05-15T05:01:04.865Z,14.72
2018-05-15T05:03:16.006Z,14.77
2018-05-15T05:05:27.119Z,14.82
2018-05-15T05:07:38.202Z,14.84
2018-05-15T05:09:49.282Z,14.86
2018-05-15T05:12:00.363Z,14.86
2018-05-15T05:14:11.479Z,14.87
2018-05-15T05:16:22.674Z,14.81
2018-05-15T05:18:33.753Z,14.79
2018-05-15T05:20:44.869Z,14.80
2018-05-15T05:22:56.087Z,14.77
2018-05-15T05:25:07.141Z,14.79
2018-05-15T05:27:18.282Z,14.82
2018-05-15T05:29:29.407Z,14.84
2018-05-15T05:31:40.486Z,14.89
2018-05-15T05:33:51.571Z,14.92
2018-05-15T05:36:02.650Z,14.92
2018-05-15T05:38:13.841Z,14.93
2018-05-15T05:40:24.911Z,14.99
2018-05-15T05:42:36.298Z,15.05
2018-05-15T05:44:47.358Z,15.12
2018-05-15T05:46:58.547Z,15.23
2018-05-15T05:49:09.741Z,15.33
2018-05-15T05:51:21.154Z,15.49
2018-05-15T05:53:32.286Z,15.60
2018-05-15T05:55:43.362Z,15.62
2018-05-15T05:57:54.430Z,15.54
2018-05-15T06:00:05.526Z,15.46
2018-05-15T06:02:16.656Z,15.38
2018-05-15T06:04:27.869Z,15.30
2018-05-15T06:06:38.937Z,15.26
2018-05-15T06:08:50.706Z,15.22
2018-05-15T06:11:01.886Z,15.20
2018-05-15T06:13:12.943Z,15.18
2018-05-15T06:15:24.191Z,15.19
2018-05-15T06:17:35.282Z,15.19
2018-05-15T06:19:46.390Z,15.18
2018-05-15T06:21:57.460Z,15.13
2018-05-15T06:24:08.531Z,15.08
2018-05-15T06:26:19.656Z,15.07
2018-05-15T06:28:30.818Z,15.06
2018-05-15T06:30:41.938Z,15.05
2018-05-15T06:32:53.030Z,15.05
2018-05-15T06:35:04.093Z,15.04
2018-05-15T06:37:15.183Z,15.04
2018-05-15T06:39:26.242Z,15.02
2018-05-15T06:41:37.336Z,14.94
2018-05-15T06:43:48.521Z,14.81
2018-05-15T06:45:59.591Z,14.88
2018-05-15T06:48:10.698Z,14.89
2018-05-15T06:50:25.924Z,14.79
2018-05-15T06:52:37.298Z,14.73
2018-05-15T06:54:48.533Z,14.78
2018-05-15T06:56:59.683Z,14.74
2018-05-15T06:59:10.800Z,14.78
2018-05-15T07:01:22.983Z,14.80
2018-05-15T07:03:34.167Z,14.78
2018-05-15T07:05:45.270Z,14.79
2018-05-15T07:07:58.335Z,14.83
2018-05-15T07:10:09.471Z,14.84
2018-05-15T07:12:20.617Z,14.87
2018-05-15T07:14:31.749Z,14.94
2018-05-15T07:16:42.807Z,14.98
2018-05-15T07:18:53.903Z,15.04
2018-05-15T07:21:06.188Z,15.29
2018-05-15T07:23:17.336Z,15.42
2018-05-15T07:25:28.382Z,15.57
2018-05-15T07:27:39.558Z,16.19
2018-05-15T07:29:50.803Z,16.95
2018-05-15T07:32:01.934Z,17.67
2018-05-15T07:34:12.988Z,18.28
2018-05-15T07:36:24.187Z,18.65
2018-05-15T07:38:35.263Z,18.55
2018-05-15T07:40:46.438Z,18.72
2018-05-15T07:42:57.497Z,19.18
2018-05-15T07:45:08.693Z,19.64
2018-05-15T07:47:19.794Z,20.08
2018-05-15T07:49:30.847Z,20.39
2018-05-15T07:51:41.948Z,20.56
2018-05-15T07:53:53.018Z,20.70
2018-05-15T07:56:04.145Z,20.71
2018-05-15T07:58:15.371Z,20.96
2018-05-15T08:00:26.514Z,21.15
2018-05-15T08:02:37.631Z,21.41
2018-05-15T08:04:48.762Z,21.57
2018-05-15T08:06:59.877Z,21.36
2018-05-15T08:09:10.935Z,21.27
2018-05-15T08:11:22.042Z,21.41
2018-05-15T08:13:33.158Z,21.61
2018-05-15T08:15:44.299Z,21.85
2018-05-15T08:17:55.419Z,22.05
2018-05-15T08:20:06.562Z,21.86
2018-05-15T08:22:17.678Z,21.88
2018-05-15T08:24:28.726Z,21.78
2018-05-15T08:26:39.800Z,21.77
2018-05-15T08:28:51.496Z,22.04
2018-05-15T08:31:02.583Z,22.22
2018-05-15T08:33:13.658Z,22.46
2018-05-15T08:35:24.833Z,22.74
2018-05-15T08:37:35.969Z,23.02
2018-05-15T08:39:47.054Z,23.14
2018-05-15T08:41:58.090Z,23.03
2018-05-15T08:44:09.197Z,23.02
2018-05-15T08:46:20.332Z,23.16
2018-05-15T08:48:31.414Z,23.16
2018-05-15T08:50:42.530Z,22.94
2018-05-15T08:52:53.586Z,22.16
2018-05-15T08:55:04.775Z,21.68
2018-05-15T08:57:15.903Z,21.80
2018-05-15T08:59:26.981Z,22.02
2018-05-15T09:01:38.097Z,22.18
2018-05-15T09:03:49.146Z,22.30
2018-05-15T09:06:00.218Z,22.30
2018-05-15T09:08:11.322Z,22.27
2018-05-15T09:10:22.423Z,22.30
2018-05-15T09:12:33.557Z,22.50
2018-05-15T09:14:44.719Z,22.58
2018-05-15T09:16:55.794Z,22.47
2018-05-15T09:19:06.899Z,22.57
2018-05-15T09:21:17.943Z,22.47
2018-05-15T09:23:29.022Z,22.65
2018-05-15T09:25:40.098Z,22.77
2018-05-15T09:27:51.234Z,22.86
2018-05-15T09:30:02.307Z,22.86
2018-05-15T09:32:13.470Z,22.57
2018-05-15T09:34:24.699Z,22.43
2018-05-15T09:36:35.733Z,22.35
2018-05-15T09:38:47.074Z,22.45
2018-05-15T09:40:58.113Z,22.52
2018-05-15T09:43:10.027Z,22.62
2018-05-15T09:45:21.210Z,22.87
2018-05-15T09:47:32.212Z,23.04
2018-05-15T09:49:43.383Z,23.10
2018-05-15T09:51:54.443Z,23.17
2018-05-15T09:54:05.534Z,23.30
2018-05-15T09:56:16.591Z,23.42
2018-05-15T09:58:27.698Z,23.54
2018-05-15T10:00:38.837Z,23.60
2018-05-15T10:02:49.887Z,23.70
2018-05-15T10:05:01.162Z,23.83
2018-05-15T10:07:12.267Z,23.83
2018-05-15T10:09:23.396Z,23.82
2018-05-15T10:11:34.505Z,23.94
2018-05-15T10:13:45.570Z,23.84
2018-05-15T10:15:56.663Z,23.55
2018-05-15T10:18:07.763Z,23.23
2018-05-15T10:20:19.058Z,22.91
2018-05-15T10:22:30.091Z,22.64
2018-05-15T10:24:41.177Z,22.36
2018-05-15T10:26:52.277Z,22.13
2018-05-15T10:29:03.346Z,22.08
2018-05-15T10:31:14.415Z,22.02
2018-05-15T10:33:25.510Z,22.01
2018-05-15T10:35:36.617Z,22.39
2018-05-15T10:37:47.837Z,22.85
2018-05-15T10:39:58.938Z,23.23
2018-05-15T10:42:10.042Z,23.29
2018-05-15T10:44:21.127Z,22.95
2018-05-15T10:46:32.185Z,22.50
2018-05-15T10:48:43.271Z,22.15
2018-05-15T10:50:54.379Z,22.30
2018-05-15T10:53:05.535Z,22.67
2018-05-15T10:55:16.664Z,22.89
2018-05-15T10:57:27.773Z,23.19
2018-05-15T10:59:39.205Z,23.36
2018-05-15T11:01:50.186Z,23.33
2018-05-15T11:04:01.571Z,23.23
2018-05-15T11:06:12.653Z,23.21
2018-05-15T11:08:23.734Z,23.23
2018-05-15T11:10:34.889Z,23.18
2018-05-15T11:12:46.016Z,23.21
2018-05-15T11:14:57.124Z,23.12
2018-05-15T11:17:08.185Z,22.95
2018-05-15T11:19:31.297Z,22.90
2018-05-15T11:21:54.586Z,22.82
2018-05-15T11:26:52.507Z,22.47
2018-05-15T11:29:03.638Z,22.31
2018-05-15T11:31:14.714Z,22.22
2018-05-15T11:33:25.853Z,22.06
2018-05-15T11:35:37.087Z,21.93
2018-05-15T11:37:48.086Z,21.97
2018-05-15T11:39:59.219Z,22.25
2018-05-15T11:42:10.370Z,22.48
2018-05-15T11:44:21.543Z,22.63
2018-05-15T11:46:32.638Z,22.75
2018-05-15T11:48:44.273Z,22.85
2018-05-15T11:50:55.898Z,22.97
2018-05-15T11:53:07.175Z,23.13
2018-05-15T11:55:17.519Z,23.30
2018-05-15T11:57:28.608Z,23.29
2018-05-15T11:59:39.659Z,23.34
2018-05-15T12:01:50.757Z,23.32
2018-05-15T12:04:01.837Z,23.29
2018-05-15T12:06:12.920Z,23.28
2018-05-15T12:08:24.119Z,23.26
2018-05-15T12:10:35.219Z,23.35
2018-05-15T12:12:46.386Z,23.31
2018-05-15T12:14:57.663Z,23.14
2018-05-15T12:17:08.667Z,23.06
2018-05-15T12:19:19.755Z,23.01
2018-05-15T12:21:30.855Z,22.97
2018-05-15T12:23:41.974Z,22.91
2018-05-15T12:25:53.077Z,22.67
2018-05-15T12:28:04.242Z,22.41
2018-05-15T12:30:15.408Z,22.43
2018-05-15T12:32:26.474Z,22.57
2018-05-15T12:34:37.694Z,22.67
2018-05-15T12:36:49.407Z,22.72
2018-05-15T12:39:00.507Z,22.88
2018-05-15T12:41:11.763Z,23.04
2018-05-15T12:43:22.794Z,23.15
2018-05-15T12:45:33.928Z,23.28
2018-05-15T12:47:45.100Z,23.40
2018-05-15T12:49:56.081Z,23.41
2018-05-15T12:52:07.219Z,23.43
2018-05-15T12:54:18.390Z,23.45
2018-05-15T12:56:29.538Z,23.40
2018-05-15T12:58:40.595Z,23.40
2018-05-15T13:00:51.798Z,23.48
2018-05-15T13:03:02.858Z,23.54
2018-05-15T13:05:13.913Z,23.46
2018-05-15T13:07:25.030Z,23.38
2018-05-15T13:09:36.155Z,23.30
2018-05-15T13:11:47.286Z,23.32
2018-05-15T13:13:58.502Z,23.29
2018-05-15T13:16:09.674Z,23.26
2018-05-15T13:18:20.768Z,23.27
2018-05-15T13:20:31.858Z,23.28
2018-05-15T13:22:42.975Z,23.30
2018-05-15T13:24:54.041Z,23.30
2018-05-15T13:27:05.176Z,23.28
2018-05-15T13:29:16.239Z,23.15
2018-05-15T13:31:27.407Z,23.08
2018-05-15T13:33:38.563Z,23.04
2018-05-15T13:35:49.735Z,23.05
2018-05-15T13:38:00.858Z,22.98
2018-05-15T13:40:12.029Z,22.89
2018-05-15T13:42:23.126Z,22.87
2018-05-15T13:44:34.221Z,22.88
2018-05-15T13:46:45.318Z,22.87
2018-05-15T13:48:56.418Z,22.85
2018-05-15T13:51:07.503Z,22.79
2018-05-15T13:53:18.613Z,22.72
2018-05-15T13:55:29.758Z,22.71
2018-05-15T13:57:40.830Z,22.74
2018-05-15T13:59:52.011Z,22.76
2018-05-15T14:02:03.121Z,22.81
2018-05-15T14:04:14.218Z,22.79
2018-05-15T14:06:25.307Z,22.86
2018-05-15T14:08:36.426Z,22.85
2018-05-15T14:10:47.573Z,22.75
2018-05-15T14:12:58.662Z,22.58
2018-05-15T14:15:09.884Z,22.44
2018-05-15T14:17:20.981Z,22.37
2018-05-15T14:19:32.086Z,22.30
2018-05-15T14:21:43.184Z,22.26
2018-05-15T14:23:54.236Z,22.31
2018-05-15T14:26:05.409Z,22.37
2018-05-15T14:28:16.541Z,22.43
2018-05-15T14:30:27.606Z,22.56
2018-05-15T14:32:38.854Z,22.55
2018-05-15T14:34:50.056Z,22.55
2018-05-15T14:37:01.122Z,22.48
2018-05-15T14:39:12.270Z,22.34
2018-05-15T14:41:35.581Z,22.20
2018-05-15T14:43:46.727Z,22.11
2018-05-15T14:45:58.031Z,22.03
2018-05-15T14:48:09.142Z,21.98
2018-05-15T14:50:20.290Z,21.87
2018-05-15T14:52:31.389Z,21.89
2018-05-15T14:54:42.502Z,22.05
2018-05-15T14:56:53.574Z,22.14
2018-05-15T14:59:04.642Z,22.27
2018-05-15T15:01:15.721Z,22.36
2018-05-15T15:03:26.839Z,22.43
2018-05-15T15:05:38.133Z,22.38
2018-05-15T15:07:49.195Z,22.34
2018-05-15T15:10:00.550Z,22.34
2018-05-15T15:12:11.595Z,22.33
2018-05-15T15:14:22.697Z,22.37
2018-05-15T15:16:33.770Z,22.30
2018-05-15T15:18:44.879Z,22.25
2018-05-15T15:20:55.989Z,22.16
2018-05-15T15:23:07.135Z,22.18
2018-05-15T15:25:18.303Z,22.17
2018-05-15T15:27:29.369Z,22.20
2018-05-15T15:29:40.600Z,22.23
2018-05-15T15:31:51.700Z,22.25
2018-05-15T15:34:02.833Z,22.33
2018-05-15T15:36:13.927Z,22.44
2018-05-15T15:38:25.034Z,22.51
2018-05-15T15:40:36.213Z,22.53
2018-05-15T15:42:47.313Z,22.55
2018-05-15T15:44:58.471Z,22.55
2018-05-15T15:47:09.578Z,22.55
2018-05-15T15:49:20.820Z,22.54
2018-05-15T15:51:31.916Z,22.50
2018-05-15T15:53:43.068Z,22.34
2018-05-15T15:55:54.190Z,22.19
2018-05-15T15:58:05.276Z,21.98
2018-05-15T16:00:16.389Z,21.72
2018-05-15T16:02:27.482Z,21.42
2018-05-15T16:04:38.633Z,21.23
2018-05-15T16:06:49.723Z,21.08
2018-05-15T16:09:00.856Z,20.88
2018-05-15T16:11:11.966Z,20.74
2018-05-15T16:13:23.006Z,20.68
2018-05-15T16:15:34.171Z,20.62
2018-05-15T16:17:45.231Z,20.62
2018-05-15T16:19:56.405Z,20.62
2018-05-15T16:22:07.532Z,20.64
2018-05-15T16:24:18.624Z,20.67
2018-05-15T16:26:29.686Z,20.70
2018-05-15T16:28:40.965Z,20.69
2018-05-15T16:30:52.018Z,20.65
2018-05-15T16:33:03.123Z,20.65
2018-05-15T16:35:14.224Z,20.66
2018-05-15T16:37:25.291Z,20.69
2018-05-15T16:39:36.419Z,20.69
2018-05-15T16:41:47.523Z,20.68
2018-05-15T16:43:58.660Z,20.66
2018-05-15T16:46:09.776Z,20.65
2018-05-15T16:48:20.970Z,20.67
2018-05-15T16:50:32.049Z,20.60
2018-05-15T16:52:43.166Z,20.60
2018-05-15T16:54:54.240Z,20.51
2018-05-15T16:57:05.391Z,20.44
2018-05-15T16:59:16.535Z,20.40
2018-05-15T17:01:27.636Z,20.38
2018-05-15T17:03:38.730Z,20.33
2018-05-15T17:05:49.794Z,20.29
2018-05-15T17:08:00.995Z,20.29
2018-05-15T17:10:12.108Z,20.25
2018-05-15T17:12:23.211Z,20.25
2018-05-15T17:14:34.371Z,20.28
2018-05-15T17:16:45.512Z,20.17
2018-05-15T17:18:56.661Z,19.98
2018-05-15T17:21:07.724Z,19.79
2018-05-15T17:23:18.931Z,19.39
2018-05-15T17:25:30.111Z,18.88
2018-05-15T17:27:42.351Z,18.42
2018-05-15T17:29:53.423Z,17.91
2018-05-15T17:32:04.517Z,17.53
2018-05-15T17:34:15.723Z,17.29
2018-05-15T17:36:26.863Z,17.12
2018-05-15T17:38:37.978Z,16.95
2018-05-15T17:40:49.241Z,16.88
2018-05-15T17:43:00.251Z,16.79
2018-05-15T17:45:11.368Z,16.75
2018-05-15T17:47:22.587Z,16.68
2018-05-15T17:49:33.629Z,16.72
2018-05-15T17:51:44.733Z,16.71
2018-05-15T17:53:55.910Z,16.73
2018-05-15T17:56:07.073Z,16.68
2018-05-15T17:58:18.153Z,16.63
2018-05-15T18:00:29.383Z,16.64
2018-05-15T18:02:40.467Z,16.61
2018-05-15T18:04:51.556Z,16.59
2018-05-15T18:07:02.570Z,16.53
2018-05-15T18:09:13.732Z,16.53
2018-05-15T18:11:24.813Z,16.53
2018-05-15T18:13:35.927Z,16.52
2018-05-15T18:15:47.135Z,16.45
2018-05-15T18:17:58.231Z,16.45
2018-05-15T18:20:09.383Z,16.44
2018-05-15T18:22:20.528Z,16.43
2018-05-15T18:24:31.606Z,16.45
2018-05-15T18:26:42.745Z,16.46
2018-05-15T18:28:53.811Z,16.43
2018-05-15T18:31:04.994Z,16.40
2018-05-15T18:33:16.179Z,16.36
2018-05-15T18:35:27.353Z,16.32
2018-05-15T18:37:38.392Z,16.30
2018-05-15T18:39:49.507Z,16.22
2018-05-15T18:42:00.623Z,16.12
2018-05-15T18:44:11.773Z,15.96
2018-05-15T18:46:22.928Z,15.81
2018-05-15T18:48:34.046Z,15.56
2018-05-15T18:50:45.177Z,15.47
2018-05-15T18:52:56.304Z,15.39
2018-05-15T18:55:07.449Z,15.35
2018-05-15T18:57:18.514Z,15.43
2018-05-15T18:59:29.639Z,15.38
2018-05-15T19:01:42.536Z,15.35
2018-05-15T19:03:53.708Z,15.32
2018-05-15T19:06:04.813Z,15.36
2018-05-15T19:08:15.986Z,15.38
2018-05-15T19:10:27.214Z,15.34
2018-05-15T19:12:38.364Z,15.33
2018-05-15T19:14:49.606Z,15.29
2018-05-15T19:17:00.788Z,15.21
2018-05-15T19:19:11.990Z,15.16
2018-05-15T19:21:23.073Z,15.16
2018-05-15T19:23:34.223Z,15.23
2018-05-15T19:25:45.369Z,15.24
2018-05-15T19:27:56.536Z,15.22
2018-05-15T19:30:07.623Z,15.20
2018-05-15T19:32:18.747Z,15.11
2018-05-15T19:34:29.923Z,15.11
2018-05-15T19:36:46.943Z,15.15
2018-05-15T19:39:04.266Z,15.20
2018-05-15T19:41:19.293Z,15.15
2018-05-15T19:43:30.520Z,15.12
2018-05-15T19:45:41.607Z,15.10
2018-05-15T19:47:52.686Z,14.99
2018-05-15T19:50:03.898Z,14.98
2018-05-15T19:52:14.991Z,14.95
2018-05-15T19:54:26.101Z,14.94
2018-05-15T19:56:37.237Z,14.99
2018-05-15T19:58:48.301Z,15.00
2018-05-15T20:00:59.501Z,14.95
2018-05-15T20:03:10.575Z,14.90
2018-05-15T20:05:21.778Z,14.88
2018-05-15T20:07:32.862Z,14.81
2018-05-15T20:09:44.152Z,14.75
2018-05-15T20:11:55.255Z,14.75
2018-05-15T20:14:06.351Z,14.81
2018-05-15T20:16:17.509Z,14.81
2018-05-15T20:18:28.541Z,14.73
2018-05-15T20:20:39.712Z,14.70
2018-05-15T20:22:50.822Z,14.69
2018-05-15T20:25:01.961Z,14.62
2018-05-15T20:27:13.079Z,14.60
2018-05-15T20:29:24.179Z,14.64
2018-05-15T20:31:35.432Z,14.61
2018-05-15T20:33:46.551Z,14.57
2018-05-15T20:35:58.016Z,14.51
2018-05-15T20:38:09.102Z,14.44
2018-05-15T20:40:20.177Z,14.46
2018-05-15T20:42:31.380Z,14.45
2018-05-15T20:44:42.495Z,14.48
2018-05-15T20:46:53.737Z,14.53
2018-05-15T20:49:04.831Z,14.51
2018-05-15T20:51:15.986Z,14.48
2018-05-15T20:53:27.059Z,14.47
2018-05-15T20:55:38.165Z,14.46
2018-05-15T20:57:49.292Z,14.51
2018-05-15T21:00:00.748Z,14.52
2018-05-15T21:02:11.871Z,14.49
2018-05-15T21:04:22.954Z,14.51
2018-05-15T21:06:34.025Z,14.54
2018-05-15T21:08:46.286Z,14.60
2018-05-15T21:10:57.422Z,14.60
2018-05-15T21:13:08.489Z,14.59
2018-05-15T21:15:19.573Z,14.67
2018-05-15T21:17:30.694Z,14.76
2018-05-15T21:19:41.910Z,14.78
2018-05-15T21:21:53.064Z,14.69
2018-05-15T21:24:04.154Z,14.59
2018-05-15T21:26:15.238Z,14.60
2018-05-15T21:28:26.384Z,14.60
2018-05-15T21:30:37.458Z,14.57
2018-05-15T21:32:48.559Z,14.57
2018-05-15T21:34:59.665Z,14.54
2018-05-15T21:37:10.719Z,14.57
2018-05-15T21:39:21.948Z,14.49
2018-05-15T21:41:33.026Z,14.42
2018-05-15T21:43:44.321Z,14.43
2018-05-15T21:45:55.432Z,14.41
2018-05-15T21:48:06.549Z,14.44
2018-05-15T21:50:17.684Z,14.42
2018-05-15T21:52:28.782Z,14.44
2018-05-15T21:54:39.894Z,14.46
2018-05-15T21:56:50.956Z,14.37
2018-05-15T21:59:02.178Z,14.32
2018-05-15T22:01:13.259Z,14.29
2018-05-15T22:03:24.389Z,14.22
2018-05-15T22:05:35.474Z,14.23
2018-05-15T22:07:46.576Z,14.11
2018-05-15T22:09:57.681Z,14.05
2018-05-15T22:12:21.091Z,14.16
2018-05-15T22:14:44.343Z,14.20
2018-05-15T22:17:07.538Z,14.22
2018-05-15T22:19:30.939Z,14.26
2018-05-15T22:21:54.280Z,14.28
2018-05-15T22:24:05.376Z,14.31
2018-05-15T22:26:16.516Z,14.31
2018-05-15T22:28:27.635Z,14.27
2018-05-15T22:30:38.723Z,14.28
2018-05-15T22:32:49.814Z,14.28
2018-05-15T22:35:00.889Z,14.26
2018-05-15T22:37:12.021Z,14.27
2018-05-15T22:39:23.098Z,14.30
2018-05-15T22:41:34.430Z,14.33
2018-05-15T22:43:45.398Z,14.32
2018-05-15T22:45:56.532Z,14.35
2018-05-15T22:48:07.609Z,14.34
2018-05-15T22:50:19.075Z,14.36
2018-05-15T22:52:31.087Z,14.36
2018-05-15T22:54:42.358Z,14.37
2018-05-15T22:56:53.471Z,14.35
2018-05-15T22:59:04.608Z,14.36
2018-05-15T23:01:15.727Z,14.36
2018-05-15T23:03:26.810Z,14.37
2018-05-15T23:05:37.880Z,14.34
2018-05-15T23:07:48.968Z,14.28
2018-05-15T23:10:00.057Z,14.26
2018-05-15T23:12:11.172Z,14.30
2018-05-15T23:14:22.350Z,14.31
2018-05-15T23:16:33.409Z,14.31
2018-05-15T23:18:44.518Z,14.31
2018-05-15T23:20:55.597Z,14.30
2018-05-15T23:23:06.706Z,14.20
2018-05-15T23:25:17.759Z,14.12
2018-05-15T23:27:28.858Z,14.09
2018-05-15T23:29:40.007Z,14.04
2018-05-15T23:31:51.146Z,13.99
2018-05-15T23:34:02.254Z,13.99
2018-05-15T23:36:13.304Z,14.02
2018-05-15T23:38:24.461Z,14.00
2018-05-15T23:40:35.515Z,14.01
2018-05-15T23:42:46.570Z,14.05
2018-05-15T23:44:57.671Z,14.08
2018-05-15T23:47:08.745Z,14.14
2018-05-15T23:49:19.950Z,14.08
2018-05-15T23:51:31.110Z,14.11
2018-05-15T23:53:42.455Z,14.03
2018-05-15T23:55:53.699Z,13.99
2018-05-15T23:58:04.842Z,13.97
